createdAt,value
2022-10-11T00:01:34.778Z,4.90
2022-10-11T00:04:12.881Z,4.60
2022-10-11T00:06:51.407Z,4.75
2022-10-11T00:09:30.118Z,4.78
2022-10-11T00:12:07.858Z,4.38
2022-10-11T00:14:45.661Z,5.80
2022-10-11T00:17:23.875Z,4.80
2022-10-11T00:20:02.039Z,4.72
2022-10-11T00:22:41.317Z,5.55
2022-10-11T00:25:20.249Z,5.18
2022-10-11T00:27:58.230Z,5.72
2022-10-11T00:30:36.329Z,5.13
2022-10-11T00:33:14.673Z,5.90
2022-10-11T00:35:52.910Z,4.55
2022-10-11T00:38:32.067Z,4.03
2022-10-11T00:41:11.005Z,4.40
2022-10-11T00:44:06.941Z,4.43
2022-10-11T00:46:55.577Z,5.00
2022-10-11T00:49:43.939Z,4.57
2022-10-11T00:52:29.143Z,5.25
2022-10-11T00:55:12.454Z,4.70
2022-10-11T00:57:52.698Z,5.18
2022-10-11T01:00:31.069Z,4.53
2022-10-11T01:03:09.133Z,4.97
2022-10-11T01:05:47.670Z,4.82
2022-10-11T01:08:26.976Z,5.28
2022-10-11T01:11:05.798Z,5.75
2022-10-11T01:14:00.007Z,6.15
2022-10-11T01:16:57.466Z,5.07
2022-10-11T01:19:46.096Z,4.85
2022-10-11T01:22:52.202Z,4.32
2022-10-11T01:25:50.907Z,4.43
2022-10-11T01:28:59.614Z,4.32
2022-10-11T01:31:37.529Z,4.63
2022-10-11T01:34:31.737Z,4.80
2022-10-11T01:37:42.543Z,3.67
2022-10-11T01:40:39.766Z,4.47
2022-10-11T01:43:21.484Z,4.22
2022-10-11T01:46:03.758Z,5.10
2022-10-11T01:48:52.385Z,4.32
2022-10-11T01:51:41.949Z,5.00
2022-10-11T01:54:44.347Z,4.25
2022-10-11T01:57:56.225Z,3.85
2022-10-11T02:01:07.139Z,4.38
2022-10-11T02:04:04.769Z,4.70
2022-10-11T02:07:01.744Z,5.22
2022-10-11T02:09:53.200Z,4.75
2022-10-11T02:13:08.502Z,4.13
2022-10-11T02:15:49.971Z,4.20
2022-10-11T02:18:36.727Z,4.30
2022-10-11T02:21:19.387Z,4.72
2022-10-11T02:24:14.077Z,4.72
2022-10-11T02:26:59.650Z,3.75
2022-10-11T02:29:42.562Z,4.60
2022-10-11T02:32:25.364Z,4.43
2022-10-11T02:35:06.402Z,4.32
2022-10-11T02:37:58.787Z,3.67
2022-10-11T02:40:41.718Z,4.28
2022-10-11T02:43:25.763Z,4.25
2022-10-11T02:46:08.368Z,4.70
2022-10-11T02:48:49.909Z,4.50
2022-10-11T02:51:32.062Z,4.07
2022-10-11T02:54:11.399Z,5.05
2022-10-11T02:56:50.800Z,4.32
2022-10-11T02:59:43.635Z,5.10
2022-10-11T03:02:22.259Z,4.53
2022-10-11T03:05:03.107Z,4.80
2022-10-11T03:07:45.003Z,4.43
2022-10-11T03:10:26.118Z,4.13
2022-10-11T03:13:05.825Z,5.28
2022-10-11T03:15:44.401Z,4.70
2022-10-11T03:18:24.251Z,3.95
2022-10-11T03:21:04.226Z,4.20
2022-10-11T03:23:44.897Z,4.15
2022-10-11T03:26:23.357Z,5.03
2022-10-11T03:29:06.016Z,4.78
2022-10-11T03:31:46.355Z,3.90
2022-10-11T03:34:27.534Z,4.30
2022-10-11T03:37:06.268Z,4.15
2022-10-11T03:39:46.319Z,3.85
2022-10-11T03:42:25.445Z,4.10
2022-10-11T03:45:18.460Z,4.18
2022-10-11T03:47:57.195Z,4.30
2022-10-11T03:50:37.990Z,4.10
2022-10-11T03:53:16.778Z,4.15
2022-10-11T03:55:58.450Z,4.50
2022-10-11T03:58:39.030Z,4.28
2022-10-11T04:01:19.829Z,4.07
2022-10-11T04:03:59.907Z,3.72
2022-10-11T04:06:37.963Z,3.80
2022-10-11T04:09:21.599Z,4.00
2022-10-11T04:12:01.743Z,4.18
2022-10-11T04:14:42.006Z,4.90
2022-10-11T04:17:21.329Z,4.28
2022-10-11T04:20:00.806Z,4.72
2022-10-11T04:22:41.295Z,3.95
2022-10-11T04:25:20.706Z,4.85
2022-10-11T04:28:00.304Z,4.22
2022-10-11T04:30:40.352Z,3.70
2022-10-11T04:33:21.302Z,4.03
2022-10-11T04:36:00.317Z,4.80
2022-10-11T04:38:39.576Z,4.47
2022-10-11T04:41:19.718Z,4.13
2022-10-11T04:44:00.754Z,5.03
2022-10-11T04:46:41.825Z,4.55
2022-10-11T04:49:21.373Z,4.15
2022-10-11T04:52:02.934Z,3.60
2022-10-11T04:54:41.790Z,4.90
2022-10-11T04:57:20.530Z,5.22
2022-10-11T05:00:01.794Z,4.47
2022-10-11T05:02:47.129Z,5.20
2022-10-11T05:05:28.219Z,3.75
2022-10-11T05:08:07.563Z,3.90
2022-10-11T05:11:05.368Z,4.22
2022-10-11T05:13:46.543Z,4.13
2022-10-11T05:16:27.139Z,5.00
2022-10-11T05:19:07.849Z,3.63
2022-10-11T05:21:47.050Z,4.60
2022-10-11T05:24:27.281Z,3.63
2022-10-11T05:27:06.237Z,4.57
2022-10-11T05:29:46.830Z,4.22
2022-10-11T05:32:28.281Z,4.50
2022-10-11T05:35:08.854Z,5.30
2022-10-11T05:37:48.463Z,4.15
2022-10-11T05:40:27.013Z,4.57
2022-10-11T05:43:07.331Z,3.78
2022-10-11T05:45:47.205Z,4.80
2022-10-11T05:48:39.047Z,3.78
2022-10-11T05:51:18.862Z,4.35
2022-10-11T05:53:57.667Z,4.18
2022-10-11T05:56:38.037Z,4.88
2022-10-11T05:59:17.667Z,4.00
2022-10-11T06:02:14.117Z,3.92
2022-10-11T06:04:54.980Z,4.00
2022-10-11T06:07:37.270Z,3.90
2022-10-11T06:10:16.750Z,4.45
2022-10-11T06:13:00.094Z,4.38
2022-10-11T06:16:11.080Z,4.50
2022-10-11T06:19:11.363Z,4.18
2022-10-11T06:22:07.649Z,4.30
2022-10-11T06:25:09.994Z,4.38
2022-10-11T06:28:09.413Z,4.25
2022-10-11T06:31:03.493Z,4.47
2022-10-11T06:33:59.998Z,4.38
2022-10-11T06:36:56.062Z,4.30
2022-10-11T06:39:59.016Z,4.65
2022-10-11T06:42:54.708Z,5.95
2022-10-11T06:45:47.468Z,4.75
2022-10-11T06:48:42.861Z,4.00
2022-10-11T06:51:45.102Z,4.50
2022-10-11T06:54:45.171Z,4.68
2022-10-11T06:57:48.055Z,4.63
2022-10-11T07:01:03.774Z,4.93
2022-10-11T07:04:01.612Z,4.97
2022-10-11T07:06:54.720Z,5.28
2022-10-11T07:09:48.398Z,4.90
2022-10-11T07:12:45.795Z,4.82
2022-10-11T07:15:41.346Z,4.57
2022-10-11T07:18:41.689Z,4.82
2022-10-11T07:21:35.785Z,4.63
2022-10-11T07:24:31.215Z,4.80
2022-10-11T07:27:43.300Z,5.53
2022-10-11T07:30:40.918Z,4.57
2022-10-11T07:33:35.030Z,5.45
2022-10-11T07:36:33.639Z,5.38
2022-10-11T07:39:39.787Z,5.93
2022-10-11T07:42:34.776Z,7.72
2022-10-11T07:45:32.803Z,5.18
2022-10-11T07:48:40.519Z,4.93
2022-10-11T07:51:34.572Z,5.57
2022-10-11T07:54:31.042Z,5.38
2022-10-11T07:57:36.493Z,5.38
2022-10-11T08:01:18.449Z,5.22
2022-10-11T08:04:15.348Z,4.97
2022-10-11T08:07:15.707Z,5.53
2022-10-11T08:10:29.112Z,5.90
2022-10-11T08:13:26.869Z,5.72
2022-10-11T08:16:21.821Z,6.03
2022-10-11T08:19:21.194Z,6.03
2022-10-11T08:22:18.185Z,5.25
2022-10-11T08:25:15.576Z,6.78
2022-10-11T08:28:21.302Z,7.60
2022-10-11T08:31:17.756Z,6.40
2022-10-11T08:34:15.441Z,5.50
2022-10-11T08:37:11.572Z,6.15
2022-10-11T08:40:06.754Z,6.47
2022-10-11T08:43:21.088Z,5.88
2022-10-11T08:45:54.280Z,5.50
2022-10-11T08:48:44.877Z,6.50
2022-10-11T08:51:36.229Z,5.68
2022-10-11T08:54:07.833Z,5.43
2022-10-11T08:56:40.473Z,5.95
2022-10-11T08:59:12.986Z,5.15
2022-10-11T09:01:56.942Z,5.82
2022-10-11T09:04:27.232Z,4.78
2022-10-11T09:07:30.771Z,4.47
2022-10-11T09:10:33.665Z,5.88
2022-10-11T09:13:31.875Z,5.85
2022-10-11T09:16:09.575Z,5.20
2022-10-11T09:18:53.075Z,5.13
2022-10-11T09:21:47.943Z,5.03
2022-10-11T09:24:46.462Z,4.97
2022-10-11T09:28:01.735Z,5.18
2022-10-11T09:30:32.664Z,4.40
2022-10-11T09:33:12.945Z,3.80
2022-10-11T09:35:51.247Z,4.72
2022-10-11T09:38:45.790Z,4.63
2022-10-11T09:41:41.292Z,5.82
2022-10-11T09:44:28.998Z,4.75
2022-10-11T09:46:58.773Z,5.50
2022-10-11T09:49:47.043Z,4.78
2022-10-11T09:52:19.201Z,4.50
2022-10-11T09:55:00.922Z,5.32
2022-10-11T09:57:33.526Z,4.82
2022-10-11T10:00:26.929Z,4.60
2022-10-11T10:03:04.396Z,4.30
2022-10-11T10:05:37.038Z,5.63
2022-10-11T10:08:05.659Z,4.72
2022-10-11T10:10:41.265Z,4.43
2022-10-11T10:13:35.930Z,4.97
2022-10-11T10:16:11.978Z,6.07
2022-10-11T10:18:50.640Z,5.78
2022-10-11T10:21:29.979Z,4.38
2022-10-11T10:24:03.347Z,4.40
2022-10-11T10:26:33.353Z,4.65
2022-10-11T10:29:16.784Z,3.75
2022-10-11T10:35:00.812Z,3.78
2022-10-11T10:37:54.758Z,4.65
2022-10-11T10:40:40.175Z,3.72
2022-10-11T10:43:16.180Z,4.05
2022-10-11T10:46:49.767Z,4.05
2022-10-11T10:52:27.556Z,3.78
2022-10-11T10:55:25.484Z,4.05
2022-10-11T10:58:27.136Z,2.80
2022-10-11T11:01:27.125Z,3.60
2022-10-11T11:04:05.274Z,4.03
2022-10-11T11:07:04.534Z,3.78
2022-10-11T11:10:02.632Z,3.05
2022-10-11T11:12:47.872Z,3.53
2022-10-11T11:15:29.219Z,4.97
2022-10-11T11:18:38.454Z,5.72
2022-10-11T11:21:13.274Z,3.95
2022-10-11T11:23:48.151Z,3.65
2022-10-11T11:26:39.729Z,3.40
2022-10-11T11:29:44.102Z,4.15
2022-10-11T11:32:22.230Z,3.42
2022-10-11T11:35:18.858Z,3.85
2022-10-11T11:37:49.874Z,3.50
2022-10-11T11:40:40.082Z,4.07
2022-10-11T11:43:20.726Z,4.25
2022-10-11T11:46:06.416Z,3.35
2022-10-11T11:48:39.370Z,3.97
2022-10-11T11:51:22.065Z,3.30
2022-10-11T11:54:13.518Z,3.70
2022-10-11T11:59:21.589Z,3.65
2022-10-11T12:02:19.426Z,3.83
2022-10-11T12:04:49.019Z,4.75
2022-10-11T12:07:23.396Z,3.50
2022-10-11T12:10:17.666Z,4.00
2022-10-11T12:12:46.045Z,3.20
2022-10-11T12:15:17.499Z,3.78
2022-10-11T12:18:15.415Z,4.20
2022-10-11T12:20:45.524Z,3.20
2022-10-11T12:23:29.789Z,4.07
2022-10-11T12:26:19.247Z,3.67
2022-10-11T12:29:00.831Z,3.60
2022-10-11T12:31:35.949Z,3.05
2022-10-11T12:34:11.265Z,3.38
2022-10-11T12:36:48.662Z,3.42
2022-10-11T12:39:20.292Z,3.58
2022-10-11T12:41:51.188Z,3.10
2022-10-11T12:44:28.022Z,2.88
2022-10-11T12:46:57.986Z,2.50
2022-10-11T12:50:06.307Z,2.97
2022-10-11T12:52:44.614Z,3.13
2022-10-11T12:55:56.714Z,2.83
2022-10-11T12:58:39.179Z,3.13
2022-10-11T13:01:23.716Z,3.10
2022-10-11T13:04:12.015Z,3.10
2022-10-11T13:06:48.601Z,3.38
2022-10-11T13:09:33.887Z,2.75
2022-10-11T13:12:14.328Z,3.13
2022-10-11T13:15:01.376Z,3.95
2022-10-11T13:17:38.642Z,3.70
2022-10-11T13:20:18.150Z,2.85
2022-10-11T13:22:53.226Z,3.22
2022-10-11T13:25:25.341Z,3.13
2022-10-11T13:27:56.129Z,3.00
2022-10-11T13:30:32.979Z,3.22
2022-10-11T13:33:06.208Z,3.35
2022-10-11T13:35:37.392Z,3.35
2022-10-11T13:38:09.250Z,3.22
2022-10-11T13:40:38.888Z,3.00
2022-10-11T13:43:08.434Z,3.58
2022-10-11T13:45:39.549Z,3.93
2022-10-11T13:48:15.688Z,3.63
2022-10-11T13:50:51.350Z,3.70
2022-10-11T13:53:19.820Z,3.65
2022-10-11T13:56:00.972Z,3.80
2022-10-11T13:58:45.192Z,3.60
2022-10-11T14:01:28.364Z,3.53
2022-10-11T14:04:09.487Z,3.75
2022-10-11T14:06:59.832Z,3.75
2022-10-11T14:09:34.549Z,3.35
2022-10-11T14:12:34.231Z,3.00
2022-10-11T14:15:05.923Z,3.08
2022-10-11T14:17:52.844Z,3.30
2022-10-11T14:20:38.667Z,3.53
2022-10-11T14:23:07.925Z,3.90
2022-10-11T14:25:37.006Z,3.90
2022-10-11T14:28:11.105Z,2.97
2022-10-11T14:30:42.108Z,3.95
2022-10-11T14:33:11.902Z,3.00
2022-10-11T14:35:42.636Z,3.95
2022-10-11T14:40:41.326Z,2.88
2022-10-11T14:43:09.790Z,3.75
2022-10-11T14:45:38.163Z,3.35
2022-10-11T14:48:07.389Z,3.55
2022-10-11T14:50:43.259Z,3.42
2022-10-11T14:53:12.216Z,3.30
2022-10-11T14:55:42.168Z,3.85
2022-10-11T14:58:13.702Z,3.15
2022-10-11T15:00:42.478Z,4.00
2022-10-11T15:03:10.926Z,3.83
2022-10-11T15:05:40.036Z,3.63
2022-10-11T15:08:08.511Z,4.60
2022-10-11T15:10:39.992Z,3.22
2022-10-11T15:13:10.059Z,3.33
2022-10-11T15:15:41.367Z,6.40
2022-10-11T15:18:13.827Z,3.47
2022-10-11T15:20:44.741Z,3.05
2022-10-11T15:23:13.810Z,2.80
2022-10-11T15:25:43.197Z,2.53
2022-10-11T15:28:30.386Z,3.20
2022-10-11T15:30:59.353Z,4.18
2022-10-11T15:33:27.365Z,4.25
2022-10-11T15:35:56.847Z,3.25
2022-10-11T15:38:26.235Z,3.35
2022-10-11T15:40:55.783Z,3.38
2022-10-11T15:43:25.325Z,2.88
2022-10-11T15:45:55.669Z,3.13
2022-10-11T15:48:26.863Z,2.97
2022-10-11T15:50:55.844Z,2.75
2022-10-11T15:53:31.624Z,2.85
2022-10-11T15:56:06.969Z,3.08
2022-10-11T15:58:38.217Z,3.17
2022-10-11T16:01:09.660Z,3.13
2022-10-11T16:03:38.945Z,4.85
2022-10-11T16:06:08.761Z,3.80
2022-10-11T16:08:38.386Z,4.07
2022-10-11T16:11:09.273Z,3.50
2022-10-11T16:13:38.858Z,3.92
2022-10-11T16:16:10.340Z,4.68
2022-10-11T16:18:39.469Z,6.05
2022-10-11T16:21:10.643Z,4.72
2022-10-11T16:23:40.731Z,4.75
2022-10-11T16:26:14.582Z,3.95
2022-10-11T16:28:44.120Z,4.30
2022-10-11T16:31:22.166Z,3.95
2022-10-11T16:33:53.526Z,4.35
2022-10-11T16:36:37.529Z,4.13
2022-10-11T16:39:19.141Z,6.38
2022-10-11T16:41:48.292Z,6.15
2022-10-11T16:44:22.077Z,5.03
2022-10-11T16:46:51.044Z,3.55
2022-10-11T16:49:23.330Z,4.13
2022-10-11T16:51:53.929Z,3.78
2022-10-11T16:54:23.095Z,3.30
2022-10-11T16:56:51.858Z,3.90
2022-10-11T16:59:20.534Z,3.38
2022-10-11T17:01:49.277Z,3.95
2022-10-11T17:04:17.441Z,2.80
2022-10-11T17:06:46.528Z,7.38
2022-10-11T17:09:16.327Z,4.97
2022-10-11T17:11:44.946Z,5.75
2022-10-11T17:14:14.291Z,3.80
2022-10-11T17:16:43.289Z,4.68
2022-10-11T17:19:14.310Z,5.13
2022-10-11T17:21:43.166Z,4.85
2022-10-11T17:24:11.618Z,5.65
2022-10-11T17:26:39.789Z,6.68
2022-10-11T17:29:08.263Z,4.88
2022-10-11T17:31:38.775Z,5.70
2022-10-11T17:34:07.127Z,7.47
2022-10-11T17:36:35.315Z,9.23
2022-10-11T17:39:07.649Z,9.88
2022-10-11T17:41:37.211Z,8.57
2022-10-11T17:44:06.720Z,7.10
2022-10-11T17:46:36.754Z,6.50
2022-10-11T17:49:07.197Z,6.35
2022-10-11T17:51:37.960Z,6.18
2022-10-11T17:54:07.066Z,6.43
2022-10-11T17:56:38.208Z,6.53
2022-10-11T17:59:09.026Z,5.78
2022-10-11T18:01:37.760Z,5.93
2022-10-11T18:04:10.367Z,5.68
2022-10-11T18:06:39.704Z,5.80
2022-10-11T18:09:08.514Z,7.07
2022-10-11T18:11:37.032Z,7.30
2022-10-11T18:14:05.772Z,6.00
2022-10-11T18:16:34.899Z,6.15
2022-10-11T18:19:16.180Z,6.03
2022-10-11T18:24:15.881Z,6.57
2022-10-11T18:26:46.151Z,6.63
2022-10-11T18:29:16.533Z,6.82
2022-10-11T18:31:49.402Z,6.60
2022-10-11T18:34:21.448Z,6.95
2022-10-11T18:36:51.453Z,6.57
2022-10-11T18:39:22.046Z,6.82
2022-10-11T18:41:50.055Z,6.20
2022-10-11T18:44:18.807Z,6.65
2022-10-11T18:46:47.149Z,7.00
2022-10-11T18:49:15.974Z,7.57
2022-10-11T18:51:46.914Z,6.15
2022-10-11T18:56:51.115Z,6.90
2022-10-11T18:59:20.690Z,7.18
2022-10-11T19:01:52.633Z,10.70
2022-10-11T19:04:21.627Z,8.18
2022-10-11T19:06:51.360Z,7.45
2022-10-11T19:09:24.815Z,7.80
2022-10-11T19:11:55.588Z,9.52
2022-10-11T19:14:28.877Z,6.80
2022-10-11T19:16:59.098Z,7.53
2022-10-11T19:19:29.928Z,7.38
2022-10-11T19:22:26.742Z,7.13
2022-10-11T19:25:07.847Z,5.90
2022-10-11T19:27:41.033Z,7.63
2022-10-11T19:30:12.541Z,10.23
2022-10-11T19:32:41.835Z,8.40
2022-10-11T19:35:15.252Z,8.88
2022-10-11T19:37:46.576Z,7.07
2022-10-11T19:40:15.606Z,7.82
2022-10-11T19:42:46.340Z,6.82
2022-10-11T19:45:15.108Z,8.35
2022-10-11T19:47:43.709Z,7.68
2022-10-11T19:50:14.336Z,8.57
2022-10-11T19:52:44.993Z,8.38
2022-10-11T19:55:14.158Z,7.32
2022-10-11T19:57:45.220Z,8.23
2022-10-11T20:00:16.435Z,8.10
2022-10-11T20:02:45.122Z,7.95
2022-10-11T20:05:17.035Z,8.20
2022-10-11T20:07:47.702Z,7.45
2022-10-11T20:10:16.457Z,7.97
2022-10-11T20:12:46.147Z,7.10
2022-10-11T20:15:15.413Z,6.80
2022-10-11T20:17:52.075Z,7.05
2022-10-11T20:20:20.661Z,6.95
2022-10-11T20:22:49.580Z,7.13
2022-10-11T20:25:21.029Z,6.72
2022-10-11T20:30:19.548Z,7.15
2022-10-11T20:32:50.536Z,6.65
2022-10-11T20:35:19.840Z,5.97
2022-10-11T20:37:49.845Z,6.82
2022-10-11T20:40:18.575Z,7.50
2022-10-11T20:42:46.284Z,7.28
2022-10-11T20:45:14.494Z,6.13
2022-10-11T20:47:42.406Z,7.05
2022-10-11T20:50:10.001Z,6.03
2022-10-11T20:52:37.438Z,6.47
2022-10-11T20:55:06.801Z,7.45
2022-10-11T20:57:34.923Z,7.10
2022-10-11T21:00:03.746Z,6.90
2022-10-11T21:02:31.545Z,6.88
2022-10-11T21:04:59.455Z,6.95
2022-10-11T21:07:27.309Z,6.57
2022-10-11T21:09:55.062Z,6.90
2022-10-11T21:12:22.900Z,6.78
2022-10-11T21:14:50.611Z,7.40
2022-10-11T21:17:18.721Z,8.55
2022-10-11T21:19:46.662Z,5.90
2022-10-11T21:22:14.236Z,6.68
2022-10-11T21:24:41.684Z,6.60
2022-10-11T21:27:09.759Z,7.68
2022-10-11T21:29:37.600Z,6.43
2022-10-11T21:32:05.106Z,6.72
2022-10-11T21:34:32.614Z,6.95
2022-10-11T21:37:00.566Z,6.13
2022-10-11T21:39:28.050Z,5.95
2022-10-11T21:41:55.451Z,5.78
2022-10-11T21:44:23.189Z,6.32
2022-10-11T21:47:07.746Z,5.90
2022-10-11T21:49:36.170Z,6.57
2022-10-11T21:52:04.655Z,6.20
2022-10-11T21:54:32.338Z,6.18
2022-10-11T21:57:00.227Z,6.13
2022-10-11T21:59:28.080Z,6.47
2022-10-11T22:02:01.469Z,6.40
2022-10-11T22:04:29.711Z,6.90
2022-10-11T22:06:57.167Z,6.95
2022-10-11T22:09:24.714Z,5.85
2022-10-11T22:11:52.668Z,5.90
2022-10-11T22:14:21.235Z,6.72
2022-10-11T22:16:48.777Z,7.07
2022-10-11T22:19:16.356Z,6.85
2022-10-11T22:21:45.378Z,5.80
2022-10-11T22:24:13.928Z,6.20
2022-10-11T22:26:41.433Z,5.97
2022-10-11T22:29:09.660Z,6.07
2022-10-11T22:31:37.526Z,6.18
2022-10-11T22:34:05.091Z,6.60
2022-10-11T22:36:33.850Z,6.03
2022-10-11T22:39:02.704Z,6.07
2022-10-11T22:41:30.601Z,6.15
2022-10-11T22:43:58.501Z,5.50
2022-10-11T22:46:25.977Z,6.30
2022-10-11T22:48:53.843Z,6.32
2022-10-11T22:51:21.553Z,5.95
2022-10-11T22:53:49.217Z,5.38
2022-10-11T22:56:16.955Z,5.95
2022-10-11T22:58:44.530Z,6.32
2022-10-11T23:01:15.927Z,5.70
2022-10-11T23:03:43.631Z,5.95
2022-10-11T23:06:11.541Z,5.55
2022-10-11T23:08:39.058Z,6.05
2022-10-11T23:11:08.192Z,5.85
2022-10-11T23:13:36.275Z,6.03
2022-10-11T23:16:08.743Z,5.93
2022-10-11T23:18:37.390Z,5.57
2022-10-11T23:21:06.593Z,6.05
2022-10-11T23:23:34.169Z,5.30
2022-10-11T23:26:11.425Z,5.47
2022-10-11T23:28:39.051Z,5.68
2022-10-11T23:31:17.765Z,5.35
2022-10-11T23:33:46.631Z,5.50
2022-10-11T23:36:25.028Z,5.78
2022-10-11T23:38:54.667Z,5.07
2022-10-11T23:41:23.526Z,5.85
2022-10-11T23:43:51.006Z,5.20
2022-10-11T23:46:19.171Z,5.65
2022-10-11T23:48:46.958Z,5.10
2022-10-11T23:51:14.521Z,5.47
2022-10-11T23:53:42.337Z,5.05
2022-10-11T23:56:11.172Z,5.35
2022-10-11T23:58:38.842Z,5.70
